Redding, California
Current Conditions -  °F | °C
As of 2:53 PM on Saturday 20 Dec 2014 (Local Time) from KRDD Reporting Station
Light Rain Light Rain  
Wind Chill: 53°   Ceiling: 600
Heat Index: 53°   Visibility: 8mi
Dew Point: 52°   Wind: 14mph
Humidity: 96%   Direction: 190°S
Pressure: 30.12"   Gusts: NA
Location:  40.59°N, 122.39°W
Report Text: KRDD 202253Z 19012KT 8SM -RA BKN006 OVC010 12/11 A3012 RMK AO2 SLP200 P0005 T01170111
Loading
Personal Weather Stations






























Interactive Weather Map New forecast layout! Learn more

10-Day Weather Forecast

Advertisements
Track Severe Weather on mobile